James Valley, South Dakota
Current Conditions -  °F | °C
As of 2:10 PM on Thursday 30 Oct 2014 (Local Time) from KHON Reporting Station
Overcast Overcast  
Wind Chill: 34°   Ceiling: 1000
Heat Index: 42°   Visibility: NA
Dew Point: 36°   Wind: 18mph
Humidity: 79%   Direction: 350°N
Pressure: 30.26"   Gusts: 31mph
Location:  44.3587°N, 98.2248°W
Report Text: KHON 301910Z AUTO 35016G27KT OVC010 06/02 A3026 RMK AO2 PK WND 35027/1906 CIG 008V011 T00560022 $
Loading
Personal Weather Stations






























Interactive Weather Map
Tropical Storm Tracking
New forecast layout! Learn more

10-Day Weather Forecast

Advertisements
Track Severe Weather on mobile